Time;durP1;ratioP1;P1;durP2;ratioP2;P2;SDS_P1;SDS_P2;PMS_P1;PMS_P2;Temp;Humidity;BMP_temperature;BMP_pressure;BME280_temperature;BME280_humidity;BME280_pressure;Samples;Min_cycle;Max_cycle;Signal;HPM_P1;HPM_P2
2022/08/29 00:01:29;;;;;;;10.05;6.78;;;;;;;23.00;74.29;99781.72;4430926;32;34683;-76
2022/08/29 00:03:58;;;;;;;10.07;7.12;;;;;;;22.39;77.79;99777.66;4429064;32;33460;-78
2022/08/29 00:06:26;;;;;;;12.10;7.05;;;;;;;22.76;75.74;99772.19;4437396;32;34409;-77
2022/08/29 00:08:53;;;;;;;10.00;6.55;;;;;;;22.73;75.76;99777.47;4432281;32;34650;-76
2022/08/29 00:11:21;;;;;;;9.95;6.00;;;;;;;22.81;75.50;99774.78;4448223;32;34004;-75
2022/08/29 00:13:49;;;;;;;9.13;6.80;;;;;;;23.00;74.69;99780.84;4433087;32;33595;-77
2022/08/29 00:16:17;;;;;;;9.73;6.65;;;;;;;22.89;75.10;99779.16;4436985;32;34551;-73
2022/08/29 00:18:45;;;;;;;10.50;7.30;;;;;;;22.92;74.97;99784.41;4425570;32;33633;-75
2022/08/29 00:21:12;;;;;;;11.55;7.07;;;;;;;23.05;74.59;99789.66;4437859;32;34575;-78
2022/08/29 00:23:41;;;;;;;9.70;6.35;;;;;;;22.91;74.58;99782.69;4440252;32;34136;-76
2022/08/29 00:26:09;;;;;;;10.85;6.68;;;;;;;23.46;72.48;99783.22;4432261;32;34044;-75
2022/08/29 00:28:37;;;;;;;8.65;6.15;;;;;;;23.44;72.25;99782.34;4435290;32;33974;-75
2022/08/29 00:31:04;;;;;;;10.05;6.68;;;;;;;23.48;72.13;99790.22;4428282;32;33919;-78
2022/08/29 00:33:32;;;;;;;8.95;6.05;;;;;;;23.39;72.56;99784.12;4436504;32;34072;-79
2022/08/29 00:36:01;;;;;;;10.50;6.12;;;;;;;23.15;73.27;99791.34;4433169;32;33351;-77
2022/08/29 00:38:30;;;;;;;10.38;6.50;;;;;;;23.03;73.99;99789.69;4434421;32;34150;-75
2022/08/29 00:40:58;;;;;;;9.77;6.62;;;;;;;22.75;75.13;99781.88;4434986;32;33832;-75
2022/08/29 00:43:30;;;;;;;10.48;6.37;;;;;;;22.12;77.95;99790.00;4430617;32;33153;-75
2022/08/29 00:46:16;;;;;;;10.00;6.47;;;;;;;22.10;79.06;99790.91;4433459;32;33759;-76
2022/08/29 00:48:49;;;;;;;12.63;6.93;;;;;;;21.92;79.40;99797.97;4431893;32;34475;-76
2022/08/29 00:51:21;;;;;;;11.02;6.32;;;;;;;20.81;87.27;99796.97;4435063;32;32822;-77
2022/08/29 00:53:57;;;;;;;10.13;7.35;;;;;;;22.01;80.74;99807.59;4438577;32;33382;-77
2022/08/29 00:56:25;;;;;;;8.82;5.82;;;;;;;21.57;83.21;99790.06;4434699;32;34675;-77
2022/08/29 00:58:55;;;;;;;10.23;6.05;;;;;;;21.77;80.50;99798.84;4435738;32;33157;-77
2022/08/29 01:01:23;;;;;;;11.45;6.05;;;;;;;21.85;81.62;99800.63;4429464;32;33871;-77
2022/08/29 01:03:52;;;;;;;10.20;6.07;;;;;;;22.14;79.69;99798.78;4434062;32;32131;-76
2022/08/29 01:06:21;;;;;;;10.10;7.03;;;;;;;21.13;84.88;99812.84;4428518;32;33553;-76
2022/08/29 01:08:50;;;;;;;10.60;6.85;;;;;;;21.72;81.57;99811.16;4434911;32;32958;-78
2022/08/29 01:14:15;;;;;;;10.70;6.70;;;;;;;22.09;79.83;99804.94;4436972;32;33468;-76
2022/08/29 01:16:44;;;;;;;10.90;7.07;;;;;;;21.83;80.45;99807.62;4430512;32;33880;-76
2022/08/29 01:19:34;;;;;;;8.88;6.40;;;;;;;21.75;80.93;99805.88;4434133;32;34707;-77
2022/08/29 01:22:06;;;;;;;11.15;6.80;;;;;;;21.17;83.97;99805.81;4430505;32;34722;-78
2022/08/29 01:24:38;;;;;;;10.38;6.75;;;;;;;21.90;80.53;99804.09;4434433;32;34163;-77
2022/08/29 01:27:06;;;;;;;9.52;6.00;;;;;;;22.18;78.93;99811.09;4431490;32;33991;-76
2022/08/29 01:29:34;;;;;;;9.73;6.57;;;;;;;20.65;87.59;99811.81;4434506;32;34051;-77
2022/08/29 01:32:03;;;;;;;10.20;6.82;;;;;;;21.52;83.43;99818.19;4433942;32;33569;-77
2022/08/29 01:34:30;;;;;;;9.25;5.93;;;;;;;21.72;81.57;99816.41;4435206;32;33241;-77
2022/08/29 01:37:02;;;;;;;11.63;6.45;;;;;;;21.95;79.88;99812.91;4426930;32;34802;-78
2022/08/29 01:39:32;;;;;;;8.45;5.93;;;;;;;21.88;80.19;99809.38;4435135;32;35021;-77
2022/08/29 01:42:05;;;;;;;9.52;6.22;;;;;;;21.83;80.56;99818.16;4435233;32;34446;-76
2022/08/29 01:44:32;;;;;;;10.52;6.28;;;;;;;22.07;79.42;99823.41;4433376;32;34965;-76
2022/08/29 01:47:00;;;;;;;10.30;5.85;;;;;;;22.35;77.59;99812.84;4432540;32;33767;-76
2022/08/29 01:49:33;;;;;;;9.25;6.20;;;;;;;21.40;82.41;99809.38;4431861;32;33714;-77
2022/08/29 01:52:02;;;;;;;8.98;5.40;;;;;;;22.10;78.92;99806.72;4435951;32;34880;-77
2022/08/29 01:54:31;;;;;;;8.50;5.55;;;;;;;22.07;78.97;99818.13;4436668;32;33657;-76
2022/08/29 01:57:00;;;;;;;8.13;5.70;;;;;;;22.04;78.81;99812.88;4433613;32;34584;-78
2022/08/29 01:59:29;;;;;;;9.75;6.20;;;;;;;22.01;78.94;99812.88;4433275;32;33686;-77
2022/08/29 02:01:59;;;;;;;9.20;5.53;;;;;;;21.72;80.05;99811.16;4430866;32;34393;-76
2022/08/29 02:04:27;;;;;;;10.30;6.05;;;;;;;21.86;79.57;99819.03;4434826;32;35493;-78
2022/08/29 02:06:55;;;;;;;9.23;6.15;;;;;;;21.85;79.51;99811.16;4435066;32;33601;-79
2022/08/29 02:09:24;;;;;;;12.82;6.70;;;;;;;20.80;84.41;99822.41;4430354;32;34036;-76
2022/08/29 02:11:53;;;;;;;10.90;6.65;;;;;;;21.47;81.44;99819.94;4429677;32;34182;-78
2022/08/29 02:14:22;;;;;;;8.25;6.03;;;;;;;21.65;80.61;99813.78;4431485;32;33451;-78
2022/08/29 02:16:49;;;;;;;11.02;6.72;;;;;;;21.80;79.16;99813.78;4435827;32;33828;-78
2022/08/29 02:19:18;;;;;;;9.52;5.78;;;;;;;21.75;79.12;99811.16;4434600;32;33749;-77
2022/08/29 02:21:45;;;;;;;7.95;5.80;;;;;;;21.62;79.59;99803.25;4437107;32;33890;-78
2022/08/29 02:24:13;;;;;;;9.00;6.37;;;;;;;21.51;80.29;99809.38;4435606;32;33965;-77
2022/08/29 02:26:54;;;;;;;9.27;6.03;;;;;;;21.47;80.22;99804.13;4430815;32;34760;-77
2022/08/29 02:29:21;;;;;;;10.68;6.30;;;;;;;21.30;81.04;99801.44;4426816;32;34820;-77
2022/08/29 02:31:49;;;;;;;10.05;6.03;;;;;;;21.53;79.57;99793.59;4431699;32;33759;-79
2022/08/29 02:34:17;;;;;;;12.37;6.57;;;;;;;21.23;80.80;99795.31;4429243;32;34116;-78
2022/08/29 02:36:44;;;;;;;9.35;6.30;;;;;;;21.06;81.54;99791.75;4431240;32;34005;-79
2022/08/29 02:39:16;;;;;;;9.10;6.65;;;;;;;21.19;81.10;99793.53;4435348;32;32678;-76
2022/08/29 02:41:44;;;;;;;11.23;6.70;;;;;;;21.12;81.24;99786.50;4435457;32;34235;-79
2022/08/29 02:44:12;;;;;;;12.50;6.22;;;;;;;21.05;81.04;99787.34;4437028;32;34230;-78
2022/08/29 02:46:39;;;;;;;12.05;7.45;;;;;;;21.25;80.58;99788.28;4435672;32;33846;-77
2022/08/29 02:49:07;;;;;;;11.77;6.78;;;;;;;20.08;87.91;99786.94;4433323;32;33873;-78
2022/08/29 02:51:35;;;;;;;10.55;7.32;;;;;;;20.60;84.76;99793.38;4424148;32;34481;-79
2022/08/29 02:54:02;;;;;;;9.93;7.30;;;;;;;20.80;83.67;99787.28;4434967;32;33387;-79
2022/08/29 02:56:30;;;;;;;10.52;7.35;;;;;;;20.66;83.49;99789.00;4439110;32;34086;-78
2022/08/29 02:58:58;;;;;;;13.98;7.53;;;;;;;21.07;81.46;99799.62;4434672;32;34066;-78
2022/08/29 03:01:26;;;;;;;14.40;7.95;;;;;;;21.19;80.65;99798.81;4433702;32;33697;-77
2022/08/29 03:03:54;;;;;;;9.98;7.22;;;;;;;21.15;80.71;99797.03;4437151;32;34267;-78
2022/08/29 03:06:22;;;;;;;11.95;7.53;;;;;;;20.96;81.81;99791.72;4429870;32;34468;-76
2022/08/29 03:08:50;;;;;;;11.30;7.32;;;;;;;20.94;82.04;99798.75;4435689;32;34581;-75
2022/08/29 03:11:20;;;;;;;13.05;7.62;;;;;;;21.27;80.02;99801.47;4424587;32;32806;-76
2022/08/29 03:13:48;;;;;;;13.93;7.97;;;;;;;21.32;79.50;99800.56;4433741;32;33108;-78
2022/08/29 03:16:16;;;;;;;12.27;8.15;;;;;;;20.83;82.63;99805.72;4435265;32;34483;-79
2022/08/29 03:18:43;;;;;;;12.48;8.52;;;;;;;20.71;83.18;99803.06;4435892;32;34822;-78
2022/08/29 03:21:15;;;;;;;10.65;7.53;;;;;;;20.92;81.72;99810.13;4429249;32;34020;-77
2022/08/29 03:23:43;;;;;;;11.73;8.38;;;;;;;21.07;81.63;99814.56;4437066;32;33572;-77
2022/08/29 03:26:11;;;;;;;11.75;8.75;;;;;;;20.19;85.76;99812.44;4434052;32;34401;-77
2022/08/29 03:28:38;;;;;;;12.40;8.73;;;;;;;19.62;90.12;99819.91;4438381;32;34744;-78
2022/08/29 03:31:06;;;;;;;12.25;8.35;;;;;;;19.87;89.19;99824.47;4434430;32;34203;-77
2022/08/29 03:33:34;;;;;;;12.18;8.80;;;;;;;20.28;86.23;99821.25;4434246;32;34383;-75
2022/08/29 03:36:02;;;;;;;14.20;8.02;;;;;;;20.00;86.79;99826.34;4436014;32;34555;-77
2022/08/29 03:38:41;;;;;;;12.55;8.30;;;;;;;20.71;83.82;99838.16;4432203;32;33962;-79
2022/08/29 03:41:08;;;;;;;12.98;8.38;;;;;;;20.84;82.61;99833.81;4434008;32;34696;-77
2022/08/29 03:43:36;;;;;;;12.90;8.80;;;;;;;20.13;87.06;99836.06;4430628;32;34620;-77
2022/08/29 03:46:04;;;;;;;14.43;8.95;;;;;;;20.12;86.01;99834.28;4436076;32;33629;-78
2022/08/29 03:48:32;;;;;;;10.88;8.43;;;;;;;19.81;89.28;99834.06;4439144;32;33526;-78
2022/08/29 03:51:00;;;;;;;13.85;9.35;;;;;;;20.31;85.73;99832.66;4428126;32;34080;-78
2022/08/29 03:53:27;;;;;;;14.07;9.13;;;;;;;20.07;87.96;99837.75;4435556;32;33507;-76
2022/08/29 03:55:57;;;;;;;12.73;9.50;;;;;;;19.33;91.82;99842.38;4436228;32;33719;-76
2022/08/29 03:58:24;;;;;;;13.75;9.48;;;;;;;20.00;87.97;99842.13;4438654;32;33751;-76
2022/08/29 04:00:52;;;;;;;14.40;9.65;;;;;;;19.65;89.92;99861.06;4436837;32;33941;-76
2022/08/29 04:03:20;;;;;;;14.18;9.80;;;;;;;19.69;90.07;99862.00;4430907;32;34871;-78
2022/08/29 04:05:57;;;;;;;14.57;9.50;;;;;;;19.48;90.58;99862.66;4429491;32;34357;-77
2022/08/29 04:08:25;;;;;;;11.73;8.85;;;;;;;20.51;84.87;99855.56;4427590;32;33854;-76
2022/08/29 04:10:53;;;;;;;12.40;9.20;;;;;;;20.08;87.26;99858.81;4419481;32;34296;-78
2022/08/29 04:13:21;;;;;;;12.80;9.98;;;;;;;20.08;86.62;99861.44;4432501;32;33222;-79
2022/08/29 04:15:49;;;;;;;15.63;10.38;;;;;;;19.84;88.09;99876.16;4432299;32;33922;-79
2022/08/29 04:18:16;;;;;;;13.50;9.63;;;;;;;19.95;87.51;99862.22;4432065;32;33812;-78
2022/08/29 04:20:49;;;;;;;15.10;10.40;;;;;;;20.20;85.64;99866.81;4435118;32;34703;-76
2022/08/29 04:23:16;;;;;;;14.95;10.02;;;;;;;19.51;90.45;99873.19;4437719;32;34281;-77
2022/08/29 04:25:43;;;;;;;15.65;10.00;;;;;;;19.43;90.73;99866.13;4432152;32;33824;-79
2022/08/29 04:28:13;;;;;;;14.52;9.88;;;;;;;20.17;86.64;99864.16;4435089;32;33871;-76
2022/08/29 04:30:46;;;;;;;14.45;10.43;;;;;;;20.29;86.13;99867.72;4435472;32;33957;-78
2022/08/29 04:33:20;;;;;;;14.02;9.30;;;;;;;20.45;84.95;99872.19;4435067;32;34358;-77
2022/08/29 04:35:50;;;;;;;17.50;9.55;;;;;;;21.05;81.45;99871.63;4435704;32;33713;-76
2022/08/29 04:38:18;;;;;;;13.57;9.10;;;;;;;19.83;88.59;99884.91;4434571;32;33950;-79
2022/08/29 04:40:46;;;;;;;14.15;9.52;;;;;;;20.34;86.23;99880.03;4427165;32;33985;-77
2022/08/29 04:43:14;;;;;;;13.35;8.93;;;;;;;21.18;80.34;99876.94;4435314;32;31903;-79
2022/08/29 04:45:41;;;;;;;17.25;9.57;;;;;;;20.93;82.18;99875.97;4437926;32;33544;-77
2022/08/29 04:48:09;;;;;;;15.35;9.55;;;;;;;20.60;83.80;99880.22;4436725;32;33513;-77
2022/08/29 04:50:37;;;;;;;14.60;8.88;;;;;;;20.19;85.37;99880.81;4436585;32;34516;-76
2022/08/29 04:53:05;;;;;;;12.32;8.90;;;;;;;21.14;80.94;99880.44;4434209;32;34028;-77
2022/08/29 04:55:33;;;;;;;12.15;8.88;;;;;;;21.22;79.84;99880.47;4433678;32;34223;-77
2022/08/29 04:58:00;;;;;;;12.20;8.27;;;;;;;20.62;83.01;99882.84;4434989;32;32403;-77
2022/08/29 05:00:30;;;;;;;11.40;8.73;;;;;;;20.77;82.17;99884.69;4425594;32;34520;-77
2022/08/29 05:02:58;;;;;;;15.65;10.05;;;;;;;21.29;80.15;99889.28;4432140;32;33223;-77
2022/08/29 05:05:26;;;;;;;14.02;10.05;;;;;;;20.33;85.30;99885.28;4432772;32;33751;-76
2022/08/29 05:07:54;;;;;;;14.73;9.55;;;;;;;20.55;83.89;99884.56;4431989;32;33444;-75
2022/08/29 05:10:22;;;;;;;15.10;9.90;;;;;;;21.18;80.53;99881.34;4432679;32;34083;-77
2022/08/29 05:12:49;;;;;;;12.32;8.88;;;;;;;21.36;79.39;99881.38;4432136;32;33691;-75
2022/08/29 05:15:17;;;;;;;12.50;9.00;;;;;;;20.47;83.06;99880.97;4433827;32;33712;-75
2022/08/29 05:17:45;;;;;;;12.95;8.18;;;;;;;20.53;84.16;99874.88;4435189;32;33429;-75
2022/08/29 05:20:12;;;;;;;12.48;8.45;;;;;;;21.39;79.71;99880.50;4432076;32;33959;-76
2022/08/29 05:22:40;;;;;;;12.43;8.75;;;;;;;21.46;78.82;99882.31;4435723;32;33227;-76
2022/08/29 05:25:10;;;;;;;12.02;8.70;;;;;;;21.41;78.84;99887.53;4435562;32;33910;-74
2022/08/29 05:27:45;;;;;;;14.02;8.85;;;;;;;21.80;77.67;99891.12;4434322;32;33772;-78
2022/08/29 05:30:15;;;;;;;13.85;8.80;;;;;;;21.71;77.96;99883.22;4435562;32;32363;-77
2022/08/29 05:32:50;;;;;;;12.77;9.40;;;;;;;21.79;77.87;99885.88;4432388;32;34242;-75
2022/08/29 05:35:18;;;;;;;13.45;8.70;;;;;;;20.37;84.45;99894.97;4428157;32;34813;-76
2022/08/29 05:37:46;;;;;;;12.37;8.20;;;;;;;21.50;79.80;99888.44;4431872;32;33744;-76
2022/08/29 05:40:13;;;;;;;11.70;8.27;;;;;;;21.85;77.78;99892.91;4434196;32;34371;-76
2022/08/29 05:42:41;;;;;;;10.75;8.85;;;;;;;21.30;80.13;99893.66;4436768;32;33172;-76
2022/08/29 05:45:09;;;;;;;12.68;8.57;;;;;;;20.85;82.15;99892.63;4434037;32;33896;-78
2022/08/29 05:47:37;;;;;;;12.35;8.98;;;;;;;20.16;86.62;99900.94;4432394;32;33802;-74
2022/08/29 05:50:06;;;;;;;17.00;8.82;;;;;;;21.19;82.67;99898.91;4427330;32;33804;-75
2022/08/29 05:52:33;;;;;;;12.13;8.15;;;;;;;21.65;79.61;99906.03;4429764;32;33589;-76
2022/08/29 05:55:01;;;;;;;15.32;8.95;;;;;;;21.84;77.99;99904.31;4430754;32;33486;-76
2022/08/29 05:57:29;;;;;;;12.55;9.18;;;;;;;21.27;80.05;99902.44;4433885;32;33721;-76
2022/08/29 05:59:56;;;;;;;14.45;8.88;;;;;;;20.61;83.74;99905.66;4435611;32;33680;-77
2022/08/29 06:02:24;;;;;;;13.13;9.93;;;;;;;20.52;84.47;99899.44;4434336;32;33542;-77
2022/08/29 06:04:52;;;;;;;14.15;8.95;;;;;;;20.19;87.19;99901.84;4432953;32;32690;-77
2022/08/29 06:07:19;;;;;;;12.90;8.98;;;;;;;21.16;81.81;99898.88;4431545;32;34836;-79
2022/08/29 06:09:47;;;;;;;12.63;9.40;;;;;;;20.80;83.20;99901.37;4431258;32;33867;-77
2022/08/29 06:12:15;;;;;;;11.93;8.85;;;;;;;20.60;84.18;99897.75;4433184;32;33584;-77
2022/08/29 06:14:42;;;;;;;12.00;8.52;;;;;;;20.30;87.22;99917.72;4436436;32;33941;-78
2022/08/29 06:17:17;;;;;;;14.27;9.25;;;;;;;20.75;84.27;99913.62;4427558;32;34044;-78
2022/08/29 06:19:48;;;;;;;12.07;9.75;;;;;;;20.22;87.37;99922.94;4433049;32;34640;-78
2022/08/29 06:22:18;;;;;;;12.13;8.25;;;;;;;20.09;88.64;99923.69;4430790;32;32010;-76
2022/08/29 06:24:46;;;;;;;14.87;9.18;;;;;;;20.88;84.42;99922.50;4433562;32;34322;-77
2022/08/29 06:27:15;;;;;;;12.37;8.77;;;;;;;21.27;81.66;99931.41;4436702;32;33746;-78
2022/08/29 06:29:42;;;;;;;13.25;8.15;;;;;;;20.48;85.61;99937.12;4434663;32;34085;-79
2022/08/29 06:32:11;;;;;;;12.93;7.80;;;;;;;20.70;84.81;99936.41;4432128;32;32870;-77
2022/08/29 06:34:39;;;;;;;10.63;7.68;;;;;;;21.77;79.86;99929.81;4433861;32;34380;-77
2022/08/29 06:37:07;;;;;;;11.90;7.43;;;;;;;21.21;80.75;99934.03;4433332;32;33929;-77
2022/08/29 06:39:35;;;;;;;12.37;7.53;;;;;;;20.90;83.16;99939.16;4429972;32;32376;-76
2022/08/29 06:42:03;;;;;;;12.37;7.55;;;;;;;21.49;80.77;99949.97;4429530;32;33126;-76
2022/08/29 06:44:30;;;;;;;10.93;6.75;;;;;;;20.99;82.22;99948.84;4436641;32;34811;-76
2022/08/29 06:46:58;;;;;;;10.63;6.93;;;;;;;21.50;80.41;99956.97;4436404;32;34464;-78
2022/08/29 06:49:26;;;;;;;9.40;6.57;;;;;;;21.45;81.27;99954.34;4434697;32;34775;-77
2022/08/29 06:51:54;;;;;;;8.15;5.90;;;;;;;21.91;79.14;99956.19;4438810;32;33622;-76
2022/08/29 06:54:26;;;;;;;9.95;6.72;;;;;;;21.92;79.03;99960.56;4435975;32;34000;-76
2022/08/29 06:56:56;;;;;;;9.35;6.40;;;;;;;23.18;72.71;99955.19;4428582;32;35133;-76
2022/08/29 06:59:24;;;;;;;9.02;5.95;;;;;;;21.54;79.57;99964.03;4428631;32;34286;-77
2022/08/29 07:01:53;;;;;;;8.68;6.03;;;;;;;22.75;75.40;99960.56;4437184;32;34163;-75
2022/08/29 07:04:21;;;;;;;10.38;6.25;;;;;;;22.44;76.45;99963.25;4430567;32;33595;-76
2022/08/29 07:06:53;;;;;;;8.45;6.35;;;;;;;22.41;75.86;99965.91;4434799;32;34004;-77
2022/08/29 07:09:21;;;;;;;10.27;6.10;;;;;;;21.91;77.61;99958.81;4437335;32;33323;-76
2022/08/29 07:11:48;;;;;;;8.70;5.20;;;;;;;22.07;77.78;99965.84;4434999;32;33274;-76
2022/08/29 07:14:16;;;;;;;7.93;5.47;;;;;;;22.76;74.98;99962.31;4429435;32;33562;-76
2022/08/29 07:16:44;;;;;;;8.55;5.28;;;;;;;22.41;75.81;99962.34;4436205;32;34011;-77
2022/08/29 07:19:12;;;;;;;7.47;5.43;;;;;;;23.09;73.13;99965.78;4435471;32;32565;-77
2022/08/29 07:21:39;;;;;;;7.82;5.37;;;;;;;23.48;71.23;99969.13;4435611;32;33448;-77
2022/08/29 07:24:07;;;;;;;8.43;5.65;;;;;;;22.59;75.25;99959.72;4430425;32;33618;-77
2022/08/29 07:26:41;;;;;;;7.07;5.45;;;;;;;22.56;74.69;99955.31;4433673;32;34283;-77
2022/08/29 07:29:12;;;;;;;9.00;5.22;;;;;;;23.24;71.80;99954.28;4434485;32;34301;-75
2022/08/29 07:31:40;;;;;;;8.48;5.43;;;;;;;23.12;71.86;99955.19;4430680;32;32826;-76
2022/08/29 07:34:08;;;;;;;9.30;5.37;;;;;;;22.55;74.56;99963.25;4437338;32;33798;-76
2022/08/29 07:36:36;;;;;;;10.32;4.93;;;;;;;22.34;75.41;99964.13;4435236;32;34471;-77
2022/08/29 07:39:07;;;;;;;10.65;5.50;;;;;;;23.45;72.22;99961.19;4434807;32;34666;-76
2022/08/29 07:41:36;;;;;;;7.95;5.30;;;;;;;23.05;72.79;99964.03;4439608;32;34269;-76
2022/08/29 07:44:04;;;;;;;7.50;4.93;;;;;;;22.73;75.35;99967.59;4431862;32;33923;-77
2022/08/29 07:46:32;;;;;;;6.70;4.40;;;;;;;24.19;68.95;99966.06;4428781;32;34613;-76
2022/08/29 07:48:59;;;;;;;6.25;4.10;;;;;;;24.47;66.67;99967.56;4433676;32;34508;-76
2022/08/29 07:51:27;;;;;;;6.35;4.35;;;;;;;24.76;65.03;99960.22;4436503;32;33194;-76
2022/08/29 07:53:56;;;;;;;7.50;4.05;;;;;;;24.79;65.72;99966.38;4437327;32;33877;-78
2022/08/29 07:56:27;;;;;;;5.85;3.60;;;;;;;25.67;61.29;99963.56;4436013;32;33713;-77
2022/08/29 07:58:56;;;;;;;6.60;3.67;;;;;;;26.37;58.86;99965.16;4434784;32;34047;-75
2022/08/29 08:01:24;;;;;;;6.07;3.47;;;;;;;26.03;60.92;99963.03;4428244;32;36074;-77
2022/08/29 08:03:53;;;;;;;7.25;4.00;;;;;;;26.06;60.25;99969.19;4437332;32;34895;-75
2022/08/29 08:06:23;;;;;;;6.70;3.70;;;;;;;26.89;56.79;99958.91;4445934;32;33287;-75
2022/08/29 08:08:54;;;;;;;7.20;3.53;;;;;;;27.48;54.78;99963.87;4451938;32;34794;-76
2022/08/29 08:11:23;;;;;;;5.75;4.10;;;;;;;26.16;59.83;99969.91;4428965;32;32441;-77
2022/08/29 08:13:54;;;;;;;6.62;3.40;;;;;;;27.77;54.50;99975.66;4434135;32;34254;-79
2022/08/29 08:16:24;;;;;;;5.32;3.70;;;;;;;27.99;52.90;99982.28;4427747;32;34068;-77
2022/08/29 08:18:52;;;;;;;6.62;3.08;;;;;;;27.50;55.61;99972.72;4432858;32;35088;-79
2022/08/29 08:21:20;;;;;;;5.65;3.30;;;;;;;28.86;50.57;99969.41;4435744;32;33995;-78
2022/08/29 08:23:48;;;;;;;6.25;3.40;;;;;;;28.78;50.68;99973.19;4417114;32;32934;-81
2022/08/29 08:26:16;;;;;;;6.53;4.05;;;;;;;28.97;50.28;99968.19;4436543;32;33810;-79
2022/08/29 08:28:44;;;;;;;5.43;3.50;;;;;;;26.31;57.13;99970.53;4430649;32;34142;-78
2022/08/29 08:31:13;;;;;;;5.78;3.65;;;;;;;26.28;58.38;99976.78;4433302;32;33307;-79
2022/08/29 08:33:43;;;;;;;6.07;3.50;;;;;;;28.17;53.41;99972.09;4432063;32;33647;-80
2022/08/29 08:36:17;;;;;;;6.60;3.65;;;;;;;29.02;51.47;99968.06;4426242;32;33896;-80
2022/08/29 08:38:45;;;;;;;7.93;3.92;;;;;;;26.48;56.96;99977.31;4429091;32;34576;-79
2022/08/29 08:41:25;;;;;;;7.18;3.92;;;;;;;26.42;57.10;99981.84;4427764;32;33979;-79
2022/08/29 08:43:59;;;;;;;6.03;3.92;;;;;;;25.84;59.27;99975.66;4434592;32;33662;-80
2022/08/29 08:46:36;;;;;;;6.30;3.80;;;;;;;26.62;57.98;99973.59;4440073;32;32905;-81
2022/08/29 08:49:26;;;;;;;8.25;3.87;;;;;;;28.17;53.66;99974.75;4429569;32;32973;-77
2022/08/29 08:51:58;;;;;;;6.47;4.05;;;;;;;28.80;51.19;99971.34;4428160;32;32902;-81
2022/08/29 08:54:28;;;;;;;6.62;4.50;;;;;;;27.67;53.59;99968.81;4431451;32;33650;-77
2022/08/29 08:57:10;;;;;;;7.50;4.30;;;;;;;27.64;54.13;99977.72;4422657;32;33860;-79
2022/08/29 08:59:44;;;;;;;6.62;4.43;;;;;;;26.53;56.76;99981.69;4436526;32;33658;-77
2022/08/29 09:02:44;;;;;;;8.23;4.40;;;;;;;25.97;58.73;99969.31;4430161;32;33138;-77
2022/08/29 09:05:37;;;;;;;5.90;4.28;;;;;;;26.49;57.63;99976.41;4427776;32;32336;-79
2022/08/29 09:08:08;;;;;;;8.82;4.97;;;;;;;26.30;58.12;99974.97;4433903;32;34638;-80
2022/08/29 09:10:52;;;;;;;6.68;4.90;;;;;;;27.32;55.29;99975.78;4431850;32;33913;-77
2022/08/29 09:13:38;;;;;;;6.80;4.30;;;;;;;25.91;58.53;99966.75;4431110;32;33810;-77
2022/08/29 09:16:28;;;;;;;6.80;4.90;;;;;;;26.33;58.58;99969.63;4431060;32;34654;-78
2022/08/29 09:18:59;;;;;;;6.45;4.72;;;;;;;25.86;59.09;99969.47;4423449;32;33935;-80
2022/08/29 09:21:28;;;;;;;7.05;4.72;;;;;;;25.60;60.41;99964.53;4432219;32;34064;-79
2022/08/29 09:24:12;;;;;;;6.93;4.57;;;;;;;26.76;56.27;99968.00;4430243;32;34040;-77
2022/08/29 09:26:40;;;;;;;6.43;4.37;;;;;;;26.03;57.45;99963.03;4432857;32;34349;-78
2022/08/29 09:29:08;;;;;;;8.80;4.93;;;;;;;26.86;56.37;99959.81;4435136;32;33882;-79
2022/08/29 09:31:36;;;;;;;7.53;4.37;;;;;;;25.99;57.89;99967.50;4433344;32;33518;-77
2022/08/29 09:34:07;;;;;;;7.20;5.15;;;;;;;25.84;58.53;99962.41;4429514;32;33547;-76
2022/08/29 09:36:45;;;;;;;6.90;4.87;;;;;;;25.41;60.16;99961.25;4433856;32;34317;-77
2022/08/29 09:39:19;;;;;;;6.50;4.70;;;;;;;26.13;58.21;99961.09;4437299;32;34073;-79
2022/08/29 09:41:51;;;;;;;8.68;4.65;;;;;;;26.49;57.01;99957.81;4437473;32;34356;-77
2022/08/29 09:44:31;;;;;;;8.20;4.15;;;;;;;27.25;55.41;99956.41;4437040;32;33432;-77
2022/08/29 09:47:11;;;;;;;7.35;4.50;;;;;;;27.43;54.17;99963.13;4433513;32;34878;-78
2022/08/29 09:49:41;;;;;;;7.03;4.60;;;;;;;25.90;58.25;99962.31;4434331;32;35591;-80
2022/08/29 09:52:13;;;;;;;7.53;4.47;;;;;;;26.14;57.29;99968.19;4434431;32;34691;-80
2022/08/29 09:54:42;;;;;;;8.18;4.70;;;;;;;26.65;57.77;99970.84;4433966;32;33770;-78
2022/08/29 09:57:24;;;;;;;6.90;3.58;;;;;;;27.15;55.90;99962.81;4437531;32;33421;-80
2022/08/29 10:00:15;;;;;;;6.37;4.60;;;;;;;27.52;53.34;99959.38;4437637;32;33896;-80
2022/08/29 10:02:48;;;;;;;9.82;4.37;;;;;;;27.29;53.42;99967.84;4435647;32;33940;-81
2022/08/29 10:05:26;;;;;;;;;;;;;;;27.13;55.05;99968.13;4427631;32;34060;-82
2022/08/29 10:07:54;;;;;;;8.20;4.55;;;;;;;27.79;52.47;99973.84;4435436;32;34244;-80
2022/08/29 10:10:24;;;;;;;7.35;4.85;;;;;;;27.46;54.13;99973.69;4437515;32;33418;-78
2022/08/29 10:13:07;;;;;;;6.65;4.18;;;;;;;27.29;54.31;99967.84;4438183;32;34563;-77
2022/08/29 10:15:41;;;;;;;7.25;4.37;;;;;;;27.31;54.69;99972.22;4436105;32;33512;-78
2022/08/29 10:19:03;;;;;;;5.72;4.18;;;;;;;27.86;53.01;99980.78;4430651;32;33898;-76
2022/08/29 10:21:40;;;;;;;7.43;4.22;;;;;;;28.25;52.45;99978.09;4377852;32;33589;-79
2022/08/29 10:24:17;;;;;;;6.62;4.45;;;;;;;28.25;51.95;99978.09;4388821;32;34563;-80
2022/08/29 10:27:02;;;;;;;6.78;4.07;;;;;;;29.08;48.44;99970.56;4402556;32;32954;-78
2022/08/29 10:29:46;;;;;;;10.13;4.32;;;;;;;27.79;51.00;99977.38;4429018;32;33588;-79
2022/08/29 10:32:23;;;;;;;;;;;;;;;27.12;52.43;99977.03;4435936;32;32525;-80
2022/08/29 10:35:13;;;;;;;6.65;4.10;;;;;;;27.59;52.47;99976.97;4428664;32;33823;-78
2022/08/29 10:37:46;;;;;;;5.57;3.85;;;;;;;28.19;51.48;99976.44;4435812;32;34049;-78
2022/08/29 10:40:20;;;;;;;6.82;3.72;;;;;;;29.04;47.54;99968.03;4434302;32;33676;-78
2022/08/29 10:42:50;;;;;;;6.07;4.03;;;;;;;29.19;47.31;99967.62;4440156;32;33660;-78
2022/08/29 10:45:34;;;;;;;7.12;3.53;;;;;;;29.44;46.42;99962.44;4437611;32;33850;-79
2022/08/29 10:48:10;;;;;;;6.00;3.60;;;;;;;29.91;46.36;99957.41;4433172;32;33459;-77
2022/08/29 10:50:45;;;;;;;7.75;3.55;;;;;;;30.15;44.94;99954.84;4436091;32;33769;-80
2022/08/29 10:53:20;;;;;;;5.93;3.75;;;;;;;29.87;44.98;99955.78;4434442;32;32339;-76
2022/08/29 10:55:59;;;;;;;4.95;3.28;;;;;;;28.76;49.22;99961.69;4439727;32;33729;-75
2022/08/29 10:58:52;;;;;;;5.90;3.47;;;;;;;28.98;48.56;99958.41;4429035;32;33140;-75
2022/08/29 11:01:26;;;;;;;6.95;3.53;;;;;;;28.94;48.42;99949.63;4436219;32;33897;-78
2022/08/29 11:04:00;;;;;;;5.75;3.78;;;;;;;27.69;50.01;99953.69;4433338;32;33966;-76
2022/08/29 11:06:33;;;;;;;5.18;2.90;;;;;;;28.00;50.91;99952.06;4438129;32;33649;-78
2022/08/29 11:09:20;;;;;;;6.15;3.33;;;;;;;29.05;46.72;99938.63;4441237;32;34208;-79
2022/08/29 11:12:16;;;;;;;5.22;3.00;;;;;;;29.06;45.38;99940.41;4438583;32;33739;-76
2022/08/29 11:14:52;;;;;;;5.30;3.03;;;;;;;28.99;47.33;99938.81;4427436;32;34048;-77
2022/08/29 11:17:24;;;;;;;5.00;3.03;;;;;;;29.45;46.99;99945.50;4429865;32;33666;-75
2022/08/29 11:19:59;;;;;;;5.57;2.97;;;;;;;29.82;45.63;99941.69;4429951;32;33099;-77
2022/08/29 11:22:39;;;;;;;6.28;3.03;;;;;;;29.99;45.71;99944.69;4438027;32;33242;-80
2022/08/29 11:25:16;;;;;;;7.00;3.22;;;;;;;29.82;45.66;99941.69;4428745;32;32620;-79
2022/08/29 11:28:03;;;;;;;5.25;3.03;;;;;;;29.48;45.88;99942.75;4433623;32;34443;-78
2022/08/29 11:30:58;;;;;;;5.82;3.40;;;;;;;28.61;46.63;99932.78;4437220;32;34385;-79
2022/08/29 11:33:36;;;;;;;6.72;3.08;;;;;;;29.50;45.28;99932.87;4429499;32;34645;-77
2022/08/29 11:36:07;;;;;;;4.72;2.65;;;;;;;29.33;46.56;99924.53;4436381;32;34190;-75
2022/08/29 11:38:59;;;;;;;4.40;2.67;;;;;;;28.73;46.89;99937.78;4436939;32;33862;-75
2022/08/29 11:41:34;;;;;;;5.05;2.85;;;;;;;28.59;47.53;99939.97;4433518;32;33862;-78
2022/08/29 11:44:38;;;;;;;5.85;2.95;;;;;;;29.40;45.20;99934.09;4429908;32;33487;-77
2022/08/29 11:47:33;;;;;;;6.07;3.05;;;;;;;29.17;45.65;99927.66;4434008;32;34089;-77
2022/08/29 11:50:13;;;;;;;4.35;2.47;;;;;;;28.60;47.73;99933.69;4434830;32;33984;-77
2022/08/29 11:53:19;;;;;;;5.90;2.83;;;;;;;29.02;46.75;99944.06;4434234;32;33284;-79